Time;durP1;ratioP1;P1;durP2;ratioP2;P2;SDS_P1;SDS_P2;PMS_P1;PMS_P2;Temp;Humidity;BMP_temperature;BMP_pressure;BME280_temperature;BME280_humidity;BME280_pressure;Samples;Min_cycle;Max_cycle;Signal;HPM_P1;HPM_P2
2021/04/23 00:00:52;;;;;;;5.20;2.73;;;8.00;78.40;;;;;;5056540;28;20270;-44
2021/04/23 00:03:40;;;;;;;7.10;3.00;;;8.00;79.60;;;;;;5055385;28;20164;-44
2021/04/23 00:06:16;;;;;;;6.27;2.70;;;8.00;79.20;;;;;;5068660;28;20194;-43
2021/04/23 00:08:45;;;;;;;4.60;2.60;;;7.90;79.20;;;;;;5075519;28;20529;-44
2021/04/23 00:11:11;;;;;;;4.53;2.73;;;7.80;79.80;;;;;;5064197;28;20181;-49
2021/04/23 00:13:39;;;;;;;8.17;3.10;;;7.70;80.20;;;;;;5064052;28;20170;-47
2021/04/23 00:16:06;;;;;;;5.67;3.00;;;7.70;80.90;;;;;;5055097;28;20191;-45
2021/04/23 00:18:32;;;;;;;4.87;2.67;;;7.60;80.90;;;;;;5074829;28;20606;-44
2021/04/23 00:20:58;;;;;;;6.87;2.83;;;7.60;81.00;;;;;;5061814;28;20750;-45
2021/04/23 00:23:24;;;;;;;4.47;2.83;;;7.50;81.20;;;;;;5058219;28;20218;-48
2021/04/23 00:25:50;;;;;;;3.67;2.33;;;7.50;81.50;;;;;;5075025;28;20282;-49
2021/04/23 00:28:17;;;;;;;6.40;3.23;;;7.50;82.00;;;;;;5061820;28;20190;-43
2021/04/23 00:30:53;;;;;;;5.90;2.97;;;7.50;82.20;;;;;;5059730;28;20196;-44
2021/04/23 00:33:20;;;;;;;8.20;3.43;;;7.40;82.00;;;;;;5074871;28;20190;-48
2021/04/23 00:35:48;;;;;;;6.00;2.50;;;7.30;82.00;;;;;;5058136;28;20207;-45
2021/04/23 00:38:20;;;;;;;4.70;3.03;;;7.30;83.20;;;;;;5058409;28;20174;-44
2021/04/23 00:40:51;;;;;;;6.10;3.67;;;7.20;83.40;;;;;;5055096;28;20168;-48
2021/04/23 00:43:19;;;;;;;5.23;4.03;;;7.10;83.60;;;;;;5058855;28;20167;-47
2021/04/23 00:45:46;;;;;;;10.00;4.83;;;7.10;84.20;;;;;;5074585;28;20206;-43
2021/04/23 00:48:13;;;;;;;5.37;3.70;;;7.00;85.00;;;;;;5071457;28;20178;-44
2021/04/23 00:50:43;;;;;;;6.50;3.73;;;6.70;87.50;;;;;;5059399;28;20178;-45
2021/04/23 00:53:24;;;;;;;8.57;3.30;;;6.40;88.30;;;;;;5061131;28;20217;-45
2021/04/23 00:55:52;;;;;;;6.47;3.87;;;6.40;88.10;;;;;;5059919;28;20190;-46
2021/04/23 00:58:21;;;;;;;5.77;3.60;;;6.50;89.10;;;;;;5067263;28;20193;-43
2021/04/23 01:00:51;;;;;;;6.53;3.57;;;6.60;89.70;;;;;;5072805;28;20174;-44
2021/04/23 01:03:19;;;;;;;6.07;3.80;;;6.70;90.00;;;;;;5072502;28;20209;-43
2021/04/23 01:05:46;;;;;;;6.10;3.80;;;6.70;89.90;;;;;;5070521;28;20226;-43
2021/04/23 01:08:11;;;;;;;6.87;3.67;;;6.70;90.00;;;;;;5054209;28;20170;-45
2021/04/23 01:10:37;;;;;;;6.30;4.20;;;6.70;90.10;;;;;;5059944;28;20182;-45
2021/04/23 01:13:04;;;;;;;5.83;4.00;;;6.60;90.40;;;;;;5069534;28;20179;-46
2021/04/23 01:15:30;;;;;;;6.17;3.83;;;6.60;90.70;;;;;;5054180;28;20655;-44
2021/04/23 01:17:56;;;;;;;5.83;3.63;;;6.50;90.10;;;;;;5055651;28;20190;-43
2021/04/23 01:20:23;;;;;;;7.93;3.60;;;6.70;90.30;;;;;;5054537;28;20182;-43
2021/04/23 01:22:49;;;;;;;7.87;3.70;;;6.70;89.80;;;;;;5062637;28;20713;-45
2021/04/23 01:25:15;;;;;;;5.13;3.40;;;6.60;89.70;;;;;;5061856;28;20276;-45
2021/04/23 01:27:41;;;;;;;4.63;3.33;;;6.60;90.20;;;;;;5067076;28;20212;-43
2021/04/23 01:30:12;;;;;;;7.37;4.27;;;6.50;90.40;;;;;;5065309;28;20186;-44
2021/04/23 01:32:38;;;;;;;5.97;3.80;;;6.50;91.20;;;;;;5063506;28;20182;-46
2021/04/23 01:35:07;;;;;;;8.73;3.93;;;6.40;91.70;;;;;;5055242;28;20181;-45
2021/04/23 01:37:33;;;;;;;8.97;5.17;;;6.30;92.20;;;;;;5070825;28;20198;-43
2021/04/23 01:39:58;;;;;;;9.67;5.40;;;6.20;92.80;;;;;;5053896;28;20167;-46
2021/04/23 01:42:25;;;;;;;8.77;4.90;;;6.20;93.20;;;;;;5054192;28;20174;-45
2021/04/23 01:44:50;;;;;;;8.30;5.10;;;6.10;93.40;;;;;;5053531;28;20233;-45
2021/04/23 01:47:17;;;;;;;11.07;5.50;;;6.00;94.10;;;;;;5054099;28;20222;-46
2021/04/23 01:49:42;;;;;;;7.63;5.47;;;6.00;94.30;;;;;;5053960;28;20214;-46
2021/04/23 01:52:18;;;;;;;9.30;6.33;;;5.90;94.70;;;;;;5061139;28;20186;-46
2021/04/23 01:54:45;;;;;;;11.03;6.20;;;6.00;94.90;;;;;;5053572;28;20669;-43
2021/04/23 01:57:11;;;;;;;6.57;4.30;;;5.90;95.00;;;;;;5070619;28;20191;-47
2021/04/23 01:59:38;;;;;;;6.60;4.30;;;5.80;95.00;;;;;;5054721;28;20198;-43
2021/04/23 02:02:04;;;;;;;6.27;3.60;;;5.80;95.20;;;;;;5054682;28;20187;-44
2021/04/23 02:04:30;;;;;;;8.47;4.10;;;5.80;95.30;;;;;;5058801;28;20201;-46
2021/04/23 02:06:57;;;;;;;7.57;4.50;;;5.80;95.60;;;;;;5074329;28;20666;-45
2021/04/23 02:09:23;;;;;;;8.80;4.33;;;5.90;95.80;;;;;;5073386;28;20189;-45
2021/04/23 02:11:51;;;;;;;7.63;4.00;;;5.90;95.70;;;;;;5057651;28;20187;-45
2021/04/23 02:14:17;;;;;;;7.83;4.17;;;5.90;95.50;;;;;;5071767;28;20649;-44
2021/04/23 02:16:43;;;;;;;7.23;4.20;;;5.80;95.60;;;;;;5075978;28;20206;-47
2021/04/23 02:19:11;;;;;;;8.50;4.00;;;5.70;96.20;;;;;;5057527;28;20603;-44
2021/04/23 02:21:37;;;;;;;8.00;3.63;;;5.60;96.60;;;;;;5072391;28;20186;-46
2021/04/23 02:24:04;;;;;;;5.00;3.70;;;5.50;97.00;;;;;;5067651;28;20198;-44
2021/04/23 02:26:31;;;;;;;5.73;3.77;;;5.50;97.10;;;;;;5064648;28;20191;-45
2021/04/23 02:28:56;;;;;;;6.60;3.53;;;5.50;97.30;;;;;;5053071;28;20175;-45
2021/04/23 02:31:25;;;;;;;5.83;3.73;;;5.60;97.50;;;;;;5052433;28;20668;-45
2021/04/23 02:33:53;;;;;;;8.60;3.97;;;5.60;97.70;;;;;;5076846;28;20205;-45
2021/04/23 02:36:19;;;;;;;5.33;3.80;;;5.60;97.70;;;;;;5057573;28;20289;-43
2021/04/23 02:38:46;;;;;;;6.57;3.87;;;5.50;97.80;;;;;;5070098;28;20221;-45
2021/04/23 02:41:13;;;;;;;6.27;3.97;;;5.50;98.00;;;;;;5061782;28;20630;-44
2021/04/23 02:43:43;;;;;;;7.20;4.30;;;5.40;98.10;;;;;;5056736;28;20183;-43
2021/04/23 02:46:09;;;;;;;7.43;3.80;;;5.40;98.40;;;;;;5070722;28;20206;-44
2021/04/23 02:48:39;;;;;;;7.80;4.63;;;5.40;98.60;;;;;;5075666;28;20182;-45
2021/04/23 02:51:09;;;;;;;8.43;4.63;;;5.40;98.60;;;;;;5076698;28;20183;-44
2021/04/23 02:53:35;;;;;;;6.37;3.97;;;5.40;98.80;;;;;;5058942;28;20190;-44
2021/04/23 02:56:02;;;;;;;7.60;4.20;;;5.30;99.20;;;;;;5072258;28;20206;-43
2021/04/23 02:58:29;;;;;;;8.43;3.87;;;5.30;99.30;;;;;;5075069;28;20206;-47
2021/04/23 03:00:59;;;;;;;6.47;3.97;;;5.30;99.30;;;;;;5067994;28;20179;-45
2021/04/23 03:03:25;;;;;;;5.20;3.90;;;5.30;99.50;;;;;;5056912;28;20179;-45
2021/04/23 03:05:51;;;;;;;8.83;4.07;;;5.30;99.90;;;;;;5071076;28;20228;-43
2021/04/23 03:08:18;;;;;;;9.57;4.80;;;5.30;99.90;;;;;;5058750;28;20191;-47
2021/04/23 03:10:47;;;;;;;6.17;4.40;;;5.30;99.90;;;;;;5063574;28;20179;-44
2021/04/23 03:13:16;;;;;;;6.97;4.70;;;5.30;99.90;;;;;;5074326;28;20233;-46
2021/04/23 03:15:42;;;;;;;10.47;5.50;;;5.30;99.90;;;;;;5057386;28;20257;-47
2021/04/23 03:18:15;;;;;;;9.37;5.80;;;5.30;99.90;;;;;;5055229;28;20175;-46
2021/04/23 03:20:41;;;;;;;8.73;5.50;;;5.40;99.90;;;;;;5074534;28;20649;-44
2021/04/23 03:23:07;;;;;;;9.97;5.57;;;5.20;99.90;;;;;;5073377;28;20174;-45
2021/04/23 03:25:33;;;;;;;8.33;5.27;;;5.30;99.90;;;;;;5055704;28;20257;-45
2021/04/23 03:27:59;;;;;;;8.50;5.20;;;5.30;99.90;;;;;;5057557;28;20175;-47
2021/04/23 03:30:29;;;;;;;12.60;5.17;;;5.30;99.90;;;;;;5075760;28;20622;-47
2021/04/23 03:32:55;;;;;;;8.33;5.20;;;5.20;99.90;;;;;;5075020;28;20174;-48
2021/04/23 03:35:22;;;;;;;9.80;5.00;;;5.30;99.90;;;;;;5055825;28;20286;-45
2021/04/23 03:37:48;;;;;;;11.23;5.23;;;5.20;99.90;;;;;;5056198;28;20183;-44
2021/04/23 03:40:18;;;;;;;7.93;5.20;;;5.20;99.90;;;;;;5042937;28;20182;-45
2021/04/23 03:42:43;;;;;;;7.37;5.50;;;5.20;99.90;;;;;;5075804;28;20261;-44
2021/04/23 03:45:11;;;;;;;8.60;4.83;;;5.20;99.90;;;;;;5071558;28;20623;-44
2021/04/23 03:47:37;;;;;;;7.93;4.87;;;5.10;99.90;;;;;;5055805;28;20194;-47
2021/04/23 03:50:05;;;;;;;7.63;5.17;;;5.00;99.90;;;;;;5058168;28;20210;-44
2021/04/23 03:52:31;;;;;;;9.70;5.53;;;5.00;99.90;;;;;;5060436;28;20603;-45
2021/04/23 03:54:57;;;;;;;9.50;5.50;;;5.00;99.90;;;;;;5056659;28;20175;-44
2021/04/23 03:57:22;;;;;;;7.23;4.37;;;5.10;99.90;;;;;;5074219;28;20201;-47
2021/04/23 03:59:48;;;;;;;10.23;4.57;;;4.90;99.90;;;;;;5073944;28;20174;-45
2021/04/23 04:02:13;;;;;;;8.50;4.57;;;4.80;99.90;;;;;;5058258;28;20183;-46
2021/04/23 04:04:39;;;;;;;9.27;4.50;;;4.70;99.90;;;;;;5059405;28;20199;-49
2021/04/23 04:07:04;;;;;;;7.57;4.17;;;4.60;99.90;;;;;;5075258;28;20217;-50
2021/04/23 04:09:30;;;;;;;6.70;4.27;;;4.60;99.90;;;;;;5073080;28;20182;-46
2021/04/23 04:11:55;;;;;;;5.80;4.13;;;4.60;99.90;;;;;;5069134;28;20197;-47
2021/04/23 04:14:21;;;;;;;7.50;4.50;;;4.60;99.90;;;;;;5057706;28;20179;-47
2021/04/23 04:16:47;;;;;;;6.60;4.57;;;4.50;99.90;;;;;;5055089;28;20288;-47
2021/04/23 04:19:12;;;;;;;6.23;4.10;;;4.60;99.90;;;;;;5071020;28;20189;-47
2021/04/23 04:21:38;;;;;;;6.67;4.70;;;4.60;99.90;;;;;;5074746;28;20180;-48
2021/04/23 04:24:04;;;;;;;8.30;4.57;;;4.70;99.90;;;;;;5060811;28;20319;-49
2021/04/23 04:26:30;;;;;;;6.73;4.20;;;4.70;99.90;;;;;;5060252;28;20658;-47
2021/04/23 04:28:56;;;;;;;5.83;4.00;;;4.70;99.90;;;;;;5075128;28;20270;-45
2021/04/23 04:31:21;;;;;;;5.30;3.57;;;4.70;99.90;;;;;;5063877;28;20669;-45
2021/04/23 04:33:48;;;;;;;5.50;3.80;;;4.70;99.90;;;;;;5057535;28;20182;-46
2021/04/23 04:36:14;;;;;;;9.07;4.27;;;4.60;99.90;;;;;;5073490;28;20194;-45
2021/04/23 04:38:40;;;;;;;11.60;4.23;;;4.60;99.90;;;;;;5060669;28;20195;-47
2021/04/23 04:41:06;;;;;;;6.57;4.10;;;4.60;99.90;;;;;;5054651;28;20216;-49
2021/04/23 04:43:32;;;;;;;7.27;4.77;;;4.60;99.90;;;;;;5070180;28;20178;-46
2021/04/23 04:45:58;;;;;;;8.40;5.27;;;4.60;99.90;;;;;;5074875;28;20186;-47
2021/04/23 04:48:24;;;;;;;8.80;4.13;;;4.70;99.90;;;;;;5061368;28;20281;-45
2021/04/23 04:50:55;;;;;;;11.30;4.30;;;4.70;99.90;;;;;;5069668;28;20235;-49
2021/04/23 04:53:21;;;;;;;9.10;4.60;;;4.70;99.90;;;;;;5074392;28;20181;-46
2021/04/23 04:55:50;;;;;;;9.23;4.10;;;4.80;99.90;;;;;;5072218;28;20640;-45
2021/04/23 04:58:17;;;;;;;8.07;3.97;;;4.80;99.90;;;;;;5075002;28;20290;-44
2021/04/23 05:00:43;;;;;;;8.20;4.10;;;4.90;99.90;;;;;;5067686;28;20597;-46
2021/04/23 05:03:10;;;;;;;9.57;4.13;;;4.90;99.90;;;;;;5074154;28;20176;-47
2021/04/23 05:05:36;;;;;;;6.63;3.80;;;5.00;99.90;;;;;;5059502;28;20214;-45
2021/04/23 05:08:02;;;;;;;4.53;3.70;;;5.00;99.90;;;;;;5059492;28;20189;-44
2021/04/23 05:10:29;;;;;;;6.20;3.50;;;5.10;99.90;;;;;;5069118;28;20700;-45
2021/04/23 05:12:54;;;;;;;9.60;4.30;;;5.10;99.90;;;;;;5065636;28;20837;-47
2021/04/23 05:15:20;;;;;;;10.67;3.90;;;5.10;99.90;;;;;;5054919;28;20190;-46
2021/04/23 05:17:47;;;;;;;6.30;3.90;;;5.20;99.90;;;;;;5059844;28;20171;-47
2021/04/23 05:20:14;;;;;;;7.77;3.70;;;5.30;99.90;;;;;;5066026;28;20240;-44
2021/04/23 05:22:40;;;;;;;6.23;3.40;;;5.40;99.90;;;;;;5062853;28;20195;-47
2021/04/23 05:25:09;;;;;;;5.73;3.27;;;5.40;99.90;;;;;;5062564;28;20527;-44
2021/04/23 05:27:35;;;;;;;9.77;5.10;;;5.40;99.90;;;;;;5066431;28;20526;-52
2021/04/23 05:30:01;;;;;;;6.40;4.53;;;5.50;99.90;;;;;;5052930;28;20670;-51
2021/04/23 05:32:27;;;;;;;6.37;3.90;;;5.60;99.90;;;;;;5062986;28;20166;-47
2021/04/23 05:34:52;;;;;;;5.40;3.77;;;5.60;99.90;;;;;;5074291;28;20235;-47
2021/04/23 05:37:18;;;;;;;9.47;3.83;;;5.70;99.90;;;;;;5074250;28;20209;-46
2021/04/23 05:39:44;;;;;;;5.13;3.40;;;5.80;99.90;;;;;;5073704;28;20269;-47
2021/04/23 05:42:14;;;;;;;7.93;3.93;;;5.70;99.90;;;;;;5073474;28;20217;-45
2021/04/23 05:44:40;;;;;;;6.73;3.73;;;5.80;99.90;;;;;;5039106;28;20217;-48
2021/04/23 05:47:05;;;;;;;8.07;3.37;;;5.90;99.90;;;;;;5064540;28;20221;-48
2021/04/23 05:49:32;;;;;;;8.00;3.40;;;6.00;99.90;;;;;;5075386;28;20170;-50
2021/04/23 05:52:00;;;;;;;4.80;3.13;;;6.10;99.90;;;;;;5056749;28;20174;-50
2021/04/23 05:54:26;;;;;;;9.30;4.13;;;6.20;99.90;;;;;;5053666;28;20193;-49
2021/04/23 05:56:52;;;;;;;8.70;3.43;;;6.20;99.90;;;;;;5054897;28;20206;-50
2021/04/23 05:59:17;;;;;;;9.53;3.30;;;6.30;99.90;;;;;;5054266;28;20171;-47
2021/04/23 06:01:44;;;;;;;7.00;3.55;;;6.40;99.90;;;;;;5052206;28;20428;-49
2021/04/23 06:04:09;;;;;;;6.00;3.30;;;6.60;99.90;;;;;;5054299;28;20249;-50
2021/04/23 06:06:35;;;;;;;6.70;3.37;;;6.70;99.90;;;;;;5053213;28;20647;-47
2021/04/23 06:09:00;;;;;;;5.60;3.30;;;6.80;99.90;;;;;;5053246;28;20177;-48
2021/04/23 06:11:26;;;;;;;5.47;3.20;;;6.90;99.90;;;;;;5051735;28;20526;-47
2021/04/23 06:13:52;;;;;;;7.83;4.10;;;7.00;99.90;;;;;;5052268;28;20199;-49
2021/04/23 06:16:17;;;;;;;8.53;3.80;;;7.00;99.90;;;;;;5053087;28;20619;-49
2021/04/23 06:18:43;;;;;;;7.83;4.00;;;7.10;99.90;;;;;;5052921;28;20178;-50
2021/04/23 06:21:10;;;;;;;9.67;3.67;;;7.20;99.90;;;;;;5053548;28;20557;-48
2021/04/23 06:23:37;;;;;;;7.10;3.50;;;7.20;99.90;;;;;;5053713;28;20206;-52
2021/04/23 06:26:03;;;;;;;7.13;3.27;;;7.30;99.90;;;;;;5053295;28;20679;-51
2021/04/23 06:28:29;;;;;;;5.53;3.40;;;7.30;99.90;;;;;;5053319;28;20183;-50
2021/04/23 06:30:56;;;;;;;4.57;2.93;;;7.40;99.90;;;;;;5052585;28;20206;-47
2021/04/23 06:33:25;;;;;;;5.10;2.93;;;7.50;99.90;;;;;;5053308;28;20179;-50
2021/04/23 06:35:50;;;;;;;8.23;3.90;;;7.70;99.90;;;;;;5061898;28;20671;-56
2021/04/23 06:38:16;;;;;;;6.43;3.53;;;7.80;99.90;;;;;;5052104;28;20221;-51
2021/04/23 06:40:42;;;;;;;6.90;3.57;;;7.90;99.80;;;;;;5070151;28;20179;-48
2021/04/23 06:43:09;;;;;;;6.70;3.40;;;8.00;99.30;;;;;;5073380;28;20265;-47
2021/04/23 06:45:35;;;;;;;4.17;2.80;;;8.10;99.60;;;;;;5073334;28;20206;-49
2021/04/23 06:48:02;;;;;;;7.47;3.63;;;8.10;99.90;;;;;;5072998;28;20170;-46
2021/04/23 06:50:28;;;;;;;6.30;3.07;;;8.30;99.90;;;;;;5073297;28;20196;-52
2021/04/23 06:52:53;;;;;;;5.10;3.10;;;8.40;99.80;;;;;;5038513;28;20172;-53
2021/04/23 06:55:21;;;;;;;5.90;3.30;;;8.60;99.70;;;;;;5055602;28;20194;-53
2021/04/23 06:57:47;;;;;;;7.00;3.43;;;8.80;98.80;;;;;;5056933;28;20191;-51
2021/04/23 07:00:25;;;;;;;6.70;3.10;;;8.80;98.60;;;;;;5057501;28;20531;-51
2021/04/23 07:02:52;;;;;;;7.77;3.80;;;8.80;98.60;;;;;;5055238;28;20183;-47
2021/04/23 07:05:18;;;;;;;5.20;3.20;;;8.90;98.40;;;;;;5055201;28;20812;-48
2021/04/23 07:07:44;;;;;;;9.70;3.93;;;9.10;98.10;;;;;;5056443;28;20639;-51
2021/04/23 07:10:14;;;;;;;7.17;3.10;;;9.30;97.80;;;;;;5056439;28;20182;-47
2021/04/23 07:12:40;;;;;;;6.87;3.80;;;9.40;96.60;;;;;;5056174;28;20183;-46
2021/04/23 07:15:09;;;;;;;7.00;3.13;;;9.40;97.20;;;;;;5056507;28;20213;-49
2021/04/23 07:17:34;;;;;;;10.30;3.67;;;9.40;96.90;;;;;;5056122;28;20187;-49
2021/04/23 07:20:00;;;;;;;5.93;3.27;;;9.50;97.10;;;;;;5056753;28;20258;-46
2021/04/23 07:22:25;;;;;;;7.97;3.17;;;9.60;96.20;;;;;;5056772;28;20240;-49
2021/04/23 07:24:51;;;;;;;6.87;3.30;;;9.80;96.40;;;;;;5056207;28;20195;-46
2021/04/23 07:27:17;;;;;;;7.03;3.00;;;9.90;97.10;;;;;;5056245;28;20728;-52
2021/04/23 07:29:42;;;;;;;6.33;3.33;;;9.90;95.10;;;;;;5056255;28;20159;-54
2021/04/23 07:32:08;;;;;;;5.77;3.10;;;9.90;94.80;;;;;;5056742;28;20246;-48
2021/04/23 07:34:35;;;;;;;7.47;3.67;;;10.00;95.00;;;;;;5056205;28;20209;-48
2021/04/23 07:37:01;;;;;;;7.13;3.77;;;9.90;97.40;;;;;;5056716;28;20230;-47
2021/04/23 07:39:27;;;;;;;8.10;3.83;;;9.90;96.40;;;;;;5056106;28;20198;-48
2021/04/23 07:41:56;;;;;;;9.07;4.23;;;9.90;97.10;;;;;;5067563;28;20190;-50
2021/04/23 07:44:24;;;;;;;7.37;3.90;;;9.80;98.00;;;;;;5056203;28;20209;-52
2021/04/23 07:46:51;;;;;;;7.80;4.03;;;9.70;97.70;;;;;;5055966;28;20282;-50
2021/04/23 07:49:17;;;;;;;5.07;3.40;;;9.70;97.90;;;;;;5054597;28;20186;-46
2021/04/23 07:51:43;;;;;;;7.70;3.70;;;9.60;97.60;;;;;;5047869;28;20527;-47
2021/04/23 07:54:09;;;;;;;9.47;3.87;;;9.60;97.50;;;;;;5062913;28;20170;-49
2021/04/23 07:56:36;;;;;;;10.67;3.90;;;9.60;96.40;;;;;;5066210;28;20198;-46
2021/04/23 07:59:02;;;;;;;5.27;3.53;;;9.70;96.50;;;;;;5058393;28;20171;-50
2021/04/23 08:01:28;;;;;;;10.73;3.63;;;9.70;95.80;;;;;;5055282;28;20262;-48
2021/04/23 08:03:53;;;;;;;5.33;3.47;;;9.70;96.90;;;;;;5055843;28;20263;-53
2021/04/23 08:06:19;;;;;;;5.03;3.13;;;9.60;96.80;;;;;;5055836;28;20183;-45
2021/04/23 08:08:45;;;;;;;7.50;3.43;;;9.60;94.80;;;;;;5055624;28;20179;-48
2021/04/23 08:11:11;;;;;;;5.60;3.20;;;9.60;92.60;;;;;;5055018;28;20175;-47
2021/04/23 08:13:36;;;;;;;9.07;4.20;;;9.60;93.30;;;;;;5055513;28;20174;-47
2021/04/23 08:16:02;;;;;;;7.97;3.63;;;9.50;94.00;;;;;;5064007;28;20209;-51
2021/04/23 08:18:28;;;;;;;7.13;3.70;;;9.50;93.40;;;;;;5075334;28;20224;-52
2021/04/23 08:20:53;;;;;;;5.27;2.93;;;9.50;93.80;;;;;;5060165;28;20189;-48
2021/04/23 08:23:19;;;;;;;7.87;3.63;;;9.70;93.40;;;;;;5074334;28;20201;-46
2021/04/23 08:25:44;;;;;;;5.53;3.00;;;9.60;93.70;;;;;;5074685;28;20674;-47
2021/04/23 08:28:10;;;;;;;7.00;2.90;;;9.60;92.80;;;;;;5084464;28;20204;-45
2021/04/23 08:30:36;;;;;;;7.13;3.00;;;9.60;93.10;;;;;;5085177;28;20186;-50
2021/04/23 08:33:02;;;;;;;5.70;3.10;;;9.60;93.80;;;;;;5072752;28;20225;-47
2021/04/23 08:35:28;;;;;;;6.27;3.20;;;9.70;96.40;;;;;;5070565;28;20177;-45
2021/04/23 08:37:54;;;;;;;7.30;2.83;;;10.00;94.50;;;;;;5070198;28;20182;-45
2021/04/23 08:40:21;;;;;;;7.73;3.53;;;9.90;93.10;;;;;;5072700;28;20201;-45
2021/04/23 08:42:47;;;;;;;8.07;3.50;;;9.90;94.00;;;;;;5071362;28;20221;-47
2021/04/23 08:45:19;;;;;;;8.93;3.50;;;9.80;94.80;;;;;;5064605;28;20697;-48
2021/04/23 08:47:46;;;;;;;6.90;3.20;;;9.90;96.50;;;;;;5067059;28;20183;-50
2021/04/23 08:50:13;;;;;;;11.20;4.23;;;9.90;93.00;;;;;;5069847;28;20174;-50
2021/04/23 08:52:42;;;;;;;6.60;3.43;;;9.90;93.10;;;;;;5074183;28;20179;-49
2021/04/23 08:55:09;;;;;;;7.47;3.57;;;10.00;93.20;;;;;;5074542;28;20662;-47
2021/04/23 08:57:34;;;;;;;7.23;3.27;;;10.20;94.20;;;;;;5075326;28;20198;-48
2021/04/23 09:00:00;;;;;;;6.83;3.63;;;10.40;94.40;;;;;;5073315;28;20780;-47
2021/04/23 09:02:25;;;;;;;10.30;4.30;;;10.50;92.80;;;;;;5073078;28;20178;-45
2021/04/23 09:04:51;;;;;;;8.80;3.73;;;10.50;92.40;;;;;;5073192;28;20241;-51
2021/04/23 09:07:16;;;;;;;9.70;4.50;;;10.40;91.90;;;;;;5074176;28;20195;-54
2021/04/23 09:09:44;;;;;;;6.17;3.90;;;10.30;93.30;;;;;;5074985;28;20179;-53
2021/04/23 09:12:20;;;;;;;9.13;4.77;;;10.30;95.90;;;;;;5074393;28;20177;-48
2021/04/23 09:14:48;;;;;;;10.23;4.13;;;10.60;94.30;;;;;;5074111;28;20182;-45
2021/04/23 09:17:24;;;;;;;9.67;4.23;;;10.40;91.40;;;;;;5073717;28;20210;-47
2021/04/23 09:19:52;;;;;;;8.47;4.37;;;10.30;92.20;;;;;;5076560;28;20175;-47
2021/04/23 09:22:17;;;;;;;9.43;4.33;;;10.40;92.60;;;;;;5089613;28;20204;-46
2021/04/23 09:24:45;;;;;;;8.27;5.00;;;10.40;92.40;;;;;;5077831;28;20236;-47
2021/04/23 09:27:15;;;;;;;8.63;4.17;;;10.60;92.60;;;;;;5080521;28;20654;-55
2021/04/23 09:29:50;;;;;;;8.53;4.30;;;10.60;92.00;;;;;;5080253;28;20173;-46
2021/04/23 09:32:19;;;;;;;6.60;4.07;;;10.50;91.50;;;;;;5060856;28;20513;-47
2021/04/23 09:34:51;;;;;;;7.70;4.50;;;10.50;94.10;;;;;;5082639;28;20182;-45
2021/04/23 09:37:18;;;;;;;7.73;4.23;;;10.80;94.60;;;;;;5086829;28;20233;-47
2021/04/23 09:39:45;;;;;;;7.63;3.87;;;11.00;92.20;;;;;;5082224;28;20202;-49
2021/04/23 09:42:11;;;;;;;10.77;4.73;;;11.10;93.70;;;;;;5068730;28;20270;-47
2021/04/23 09:44:49;;;;;;;10.83;5.27;;;11.40;92.90;;;;;;5053900;28;20393;-47
2021/04/23 09:47:18;;;;;;;7.80;4.53;;;11.40;91.10;;;;;;5051533;28;20207;-51
2021/04/23 09:49:45;;;;;;;8.90;5.00;;;11.50;91.50;;;;;;5052745;28;20174;-47
2021/04/23 09:52:15;;;;;;;8.67;4.70;;;11.50;91.90;;;;;;5052742;28;20724;-45
2021/04/23 09:54:49;;;;;;;7.40;4.70;;;11.70;92.10;;;;;;5053764;28;20175;-50
2021/04/23 09:57:23;;;;;;;9.77;4.80;;;11.80;93.20;;;;;;5053563;28;20190;-50
2021/04/23 09:59:51;;;;;;;8.77;5.10;;;12.00;91.00;;;;;;5054432;28;20174;-55
2021/04/23 10:02:18;;;;;;;9.50;4.23;;;11.70;89.60;;;;;;5054257;28;20262;-52
2021/04/23 10:04:44;;;;;;;11.80;4.70;;;11.80;91.90;;;;;;5053882;28;20222;-49
2021/04/23 10:07:17;;;;;;;7.47;4.60;;;12.00;90.90;;;;;;5054804;28;20222;-52
2021/04/23 10:10:02;;;;;;;9.87;4.67;;;11.90;90.20;;;;;;5054148;28;20167;-49
2021/04/23 10:12:50;;;;;;;7.20;4.83;;;12.10;91.30;;;;;;5053309;28;20582;-48
2021/04/23 10:15:26;;;;;;;10.27;5.13;;;12.20;92.80;;;;;;5053423;28;20190;-45
2021/04/23 10:17:57;;;;;;;9.30;5.37;;;12.30;90.60;;;;;;5053953;28;20263;-51
2021/04/23 10:20:25;;;;;;;9.87;5.47;;;12.30;92.10;;;;;;5053970;28;20175;-47
2021/04/23 10:22:52;;;;;;;8.37;5.43;;;12.40;92.50;;;;;;5053808;28;20524;-51
2021/04/23 10:25:19;;;;;;;10.43;5.50;;;12.30;91.10;;;;;;5053116;28;20214;-46
2021/04/23 10:27:46;;;;;;;10.63;5.67;;;12.00;90.20;;;;;;5054277;28;20171;-46
2021/04/23 10:30:18;;;;;;;8.73;5.67;;;11.90;92.60;;;;;;5057531;28;20254;-46
2021/04/23 10:32:51;;;;;;;11.17;5.70;;;11.90;92.30;;;;;;5057136;28;20156;-45
2021/04/23 10:35:18;;;;;;;11.67;5.43;;;11.90;89.40;;;;;;5057788;28;20170;-53
2021/04/23 10:37:47;;;;;;;8.97;4.73;;;11.90;91.30;;;;;;5057095;28;20191;-51
2021/04/23 10:40:18;;;;;;;9.87;5.70;;;12.10;88.70;;;;;;5057294;28;20206;-47
2021/04/23 10:42:55;;;;;;;10.80;5.70;;;12.20;91.40;;;;;;5056737;28;20164;-47
2021/04/23 10:45:37;;;;;;;8.57;5.60;;;12.30;92.00;;;;;;5057266;28;20709;-55
2021/04/23 10:48:24;;;;;;;9.23;5.57;;;12.40;90.70;;;;;;5057889;28;20183;-45
2021/04/23 10:50:59;;;;;;;8.80;5.47;;;12.60;91.50;;;;;;5057585;28;20708;-55
2021/04/23 10:53:41;;;;;;;11.43;5.33;;;12.50;90.00;;;;;;5056988;28;20646;-45
2021/04/23 10:56:24;;;;;;;9.47;5.27;;;12.60;91.30;;;;;;5056802;28;20199;-51
2021/04/23 10:58:51;;;;;;;9.63;5.63;;;12.60;89.40;;;;;;5057442;28;20182;-47
2021/04/23 11:01:16;;;;;;;9.03;5.50;;;12.70;88.90;;;;;;5056610;28;20186;-45
2021/04/23 11:03:43;;;;;;;8.80;5.40;;;12.50;88.80;;;;;;5057145;28;20178;-49
2021/04/23 11:06:15;;;;;;;10.47;5.47;;;12.40;87.80;;;;;;5056568;28;20585;-52
2021/04/23 11:09:17;;;;;;;10.20;6.00;;;12.40;90.00;;;;;;5057194;28;20190;-49
2021/04/23 11:12:04;;;;;;;9.37;5.73;;;12.60;90.70;;;;;;5056739;28;20221;-52
2021/04/23 11:14:30;;;;;;;10.13;5.60;;;12.70;90.90;;;;;;5056182;28;20179;-49
2021/04/23 11:17:18;;;;;;;10.27;5.90;;;12.70;85.70;;;;;;5056651;28;20199;-50
2021/04/23 11:19:48;;;;;;;7.50;5.33;;;12.50;85.10;;;;;;5056939;28;20182;-46
2021/04/23 11:22:17;;;;;;;7.63;4.53;;;13.60;88.20;;;;;;5056536;28;20175;-47
2021/04/23 11:25:10;;;;;;;8.93;5.50;;;12.80;90.30;;;;;;5056540;28;20670;-49
2021/04/23 11:27:59;;;;;;;7.97;5.00;;;12.90;86.30;;;;;;5049882;28;20200;-46
2021/04/23 11:30:24;;;;;;;10.00;6.03;;;12.90;83.60;;;;;;5056660;28;20175;-49
2021/04/23 11:32:54;;;;;;;9.57;5.37;;;13.00;89.60;;;;;;5056187;28;20250;-50
2021/04/23 11:35:23;;;;;;;6.93;4.47;;;13.30;81.70;;;;;;5056356;28;20181;-50
2021/04/23 11:37:51;;;;;;;6.80;4.73;;;13.50;85.60;;;;;;5056435;28;20249;-51
2021/04/23 11:40:25;;;;;;;6.73;4.83;;;13.60;81.00;;;;;;5055557;28;20510;-52
2021/04/23 11:42:56;;;;;;;8.10;5.13;;;13.70;77.50;;;;;;5056284;28;20256;-46
2021/04/23 11:45:22;;;;;;;9.30;5.27;;;14.10;85.60;;;;;;5055777;28;20200;-46
2021/04/23 11:47:49;;;;;;;8.03;4.97;;;14.20;75.90;;;;;;5037022;28;20193;-48
2021/04/23 11:50:32;;;;;;;8.63;5.20;;;14.10;80.40;;;;;;5056423;28;20674;-49
2021/04/23 11:52:59;;;;;;;6.23;4.43;;;14.10;83.90;;;;;;5055986;28;20675;-51
2021/04/23 11:55:30;;;;;;;9.33;5.10;;;14.20;77.40;;;;;;5055286;28;20539;-49
2021/04/23 11:58:13;;;;;;;7.37;4.97;;;14.20;78.20;;;;;;5055611;28;20592;-50
2021/04/23 12:00:54;;;;;;;8.03;5.13;;;14.20;83.30;;;;;;5055915;28;20628;-54
2021/04/23 12:03:20;;;;;;;10.13;5.03;;;14.50;78.60;;;;;;5056162;28;20168;-49
2021/04/23 12:05:46;;;;;;;8.43;5.03;;;14.60;77.90;;;;;;5056203;28;20233;-48
2021/04/23 12:08:16;;;;;;;8.70;5.67;;;14.70;83.00;;;;;;5055970;28;20178;-47
2021/04/23 12:10:44;;;;;;;7.37;5.23;;;15.00;78.50;;;;;;5056177;28;20182;-47
2021/04/23 12:13:18;;;;;;;7.33;5.13;;;15.40;79.20;;;;;;5055735;28;20168;-48
2021/04/23 12:15:46;;;;;;;7.90;5.37;;;15.80;77.30;;;;;;5054180;28;20211;-49
2021/04/23 12:18:12;;;;;;;8.30;4.93;;;15.90;83.30;;;;;;5055965;28;20178;-49
2021/04/23 12:20:40;;;;;;;8.77;5.80;;;16.30;81.30;;;;;;5055239;28;20178;-47
2021/04/23 12:23:11;;;;;;;7.17;4.97;;;16.60;78.20;;;;;;5055760;28;20172;-49
2021/04/23 12:25:41;;;;;;;9.03;5.50;;;16.50;71.90;;;;;;5056247;28;20230;-46
2021/04/23 12:28:20;;;;;;;9.00;5.53;;;16.30;74.10;;;;;;5055950;28;20155;-51
2021/04/23 12:30:48;;;;;;;7.40;5.23;;;16.50;79.20;;;;;;5055127;28;20179;-46
2021/04/23 12:33:14;;;;;;;11.63;6.00;;;16.40;74.20;;;;;;5054722;28;20686;-49
2021/04/23 12:35:45;;;;;;;8.70;6.10;;;16.30;73.70;;;;;;5055118;28;20200;-48
2021/04/23 12:38:13;;;;;;;7.83;5.60;;;16.00;75.40;;;;;;5055681;28;20327;-49
2021/04/23 12:40:44;;;;;;;8.23;5.40;;;16.40;80.80;;;;;;5054787;28;20179;-49
2021/04/23 12:43:20;;;;;;;7.43;5.50;;;16.90;74.70;;;;;;5055605;28;20190;-47
2021/04/23 12:45:51;;;;;;;8.83;5.47;;;16.90;72.50;;;;;;5054703;28;20206;-49
2021/04/23 12:48:19;;;;;;;9.00;5.70;;;16.60;75.10;;;;;;5037900;28;20181;-52
2021/04/23 12:50:47;;;;;;;8.30;5.93;;;16.60;73.20;;;;;;5055099;28;20294;-54
2021/04/23 12:53:14;;;;;;;8.47;5.40;;;16.50;76.10;;;;;;5055074;28;20178;-46
2021/04/23 12:55:41;;;;;;;8.03;5.73;;;16.70;74.10;;;;;;5055129;28;20203;-49
2021/04/23 12:58:07;;;;;;;8.33;5.17;;;16.90;73.20;;;;;;5054634;28;20211;-47